sensor_id;sensor_type;location;lat;lon;timestamp;P1;durP1;ratioP1;P2;durP2;ratioP2
33844;SDS011;20145;43.118;25.694;2023-05-16T00:01:40;5.50;;;3.60;;
33844;SDS011;20145;43.118;25.694;2023-05-16T00:04:05;4.25;;;3.85;;
33844;SDS011;20145;43.118;25.694;2023-05-16T00:06:31;5.63;;;4.07;;
33844;SDS011;20145;43.118;25.694;2023-05-16T00:08:57;7.90;;;4.57;;
33844;SDS011;20145;43.118;25.694;2023-05-16T00:11:23;8.23;;;4.30;;
33844;SDS011;20145;43.118;25.694;2023-05-16T00:13:48;6.47;;;4.60;;
33844;SDS011;20145;43.118;25.694;2023-05-16T00:16:15;9.40;;;4.93;;
33844;SDS011;20145;43.118;25.694;2023-05-16T00:18:42;7.03;;;4.88;;
33844;SDS011;20145;43.118;25.694;2023-05-16T00:21:09;8.27;;;4.07;;
33844;SDS011;20145;43.118;25.694;2023-05-16T00:23:35;10.10;;;4.43;;
33844;SDS011;20145;43.118;25.694;2023-05-16T00:26:01;8.40;;;4.78;;
33844;SDS011;20145;43.118;25.694;2023-05-16T00:28:26;6.68;;;4.70;;
33844;SDS011;20145;43.118;25.694;2023-05-16T00:30:52;9.25;;;4.55;;
33844;SDS011;20145;43.118;25.694;2023-05-16T00:33:17;10.32;;;5.85;;
33844;SDS011;20145;43.118;25.694;2023-05-16T00:35:43;11.50;;;4.32;;
33844;SDS011;20145;43.118;25.694;2023-05-16T00:38:09;6.15;;;4.20;;
33844;SDS011;20145;43.118;25.694;2023-05-16T00:40:34;8.93;;;4.22;;
33844;SDS011;20145;43.118;25.694;2023-05-16T00:43:00;11.90;;;3.90;;
33844;SDS011;20145;43.118;25.694;2023-05-16T00:45:25;5.30;;;3.70;;
33844;SDS011;20145;43.118;25.694;2023-05-16T00:47:51;8.85;;;3.25;;
33844;SDS011;20145;43.118;25.694;2023-05-16T00:50:17;8.18;;;3.45;;
33844;SDS011;20145;43.118;25.694;2023-05-16T00:52:43;6.15;;;3.50;;
33844;SDS011;20145;43.118;25.694;2023-05-16T00:55:08;9.05;;;3.70;;
33844;SDS011;20145;43.118;25.694;2023-05-16T00:57:35;9.90;;;3.28;;
33844;SDS011;20145;43.118;25.694;2023-05-16T01:00:03;8.60;;;3.40;;
33844;SDS011;20145;43.118;25.694;2023-05-16T01:02:36;7.18;;;3.28;;
33844;SDS011;20145;43.118;25.694;2023-05-16T01:05:02;6.85;;;3.45;;
33844;SDS011;20145;43.118;25.694;2023-05-16T01:07:33;8.73;;;3.72;;
33844;SDS011;20145;43.118;25.694;2023-05-16T01:10:00;6.95;;;3.40;;
33844;SDS011;20145;43.118;25.694;2023-05-16T01:15:37;4.88;;;3.53;;
33844;SDS011;20145;43.118;25.694;2023-05-16T01:18:18;5.97;;;3.55;;
33844;SDS011;20145;43.118;25.694;2023-05-16T01:20:58;5.75;;;4.00;;
33844;SDS011;20145;43.118;25.694;2023-05-16T01:28:36;8.32;;;4.28;;
33844;SDS011;20145;43.118;25.694;2023-05-16T01:31:03;8.18;;;4.40;;
33844;SDS011;20145;43.118;25.694;2023-05-16T01:33:29;10.13;;;4.85;;
33844;SDS011;20145;43.118;25.694;2023-05-16T01:36:20;8.13;;;4.38;;
33844;SDS011;20145;43.118;25.694;2023-05-16T01:38:44;5.85;;;4.43;;
33844;SDS011;20145;43.118;25.694;2023-05-16T01:41:20;5.45;;;4.40;;
33844;SDS011;20145;43.118;25.694;2023-05-16T01:44:22;6.65;;;4.80;;
33844;SDS011;20145;43.118;25.694;2023-05-16T01:46:55;11.00;;;4.82;;
33844;SDS011;20145;43.118;25.694;2023-05-16T01:52:10;5.80;;;4.30;;
33844;SDS011;20145;43.118;25.694;2023-05-16T01:54:40;7.88;;;4.45;;
33844;SDS011;20145;43.118;25.694;2023-05-16T01:57:09;6.45;;;5.25;;
33844;SDS011;20145;43.118;25.694;2023-05-16T01:59:36;8.60;;;4.65;;
33844;SDS011;20145;43.118;25.694;2023-05-16T02:02:03;8.95;;;4.80;;
33844;SDS011;20145;43.118;25.694;2023-05-16T02:04:29;7.78;;;4.72;;
33844;SDS011;20145;43.118;25.694;2023-05-16T02:06:55;10.45;;;4.53;;
33844;SDS011;20145;43.118;25.694;2023-05-16T02:09:21;5.43;;;4.22;;
33844;SDS011;20145;43.118;25.694;2023-05-16T02:11:47;7.15;;;4.22;;
33844;SDS011;20145;43.118;25.694;2023-05-16T02:14:12;7.50;;;4.78;;
33844;SDS011;20145;43.118;25.694;2023-05-16T02:16:38;13.90;;;4.70;;
33844;SDS011;20145;43.118;25.694;2023-05-16T02:19:04;7.60;;;4.50;;
33844;SDS011;20145;43.118;25.694;2023-05-16T02:21:30;9.52;;;4.72;;
33844;SDS011;20145;43.118;25.694;2023-05-16T02:23:56;9.77;;;4.53;;
33844;SDS011;20145;43.118;25.694;2023-05-16T02:26:22;9.43;;;4.65;;
33844;SDS011;20145;43.118;25.694;2023-05-16T02:28:47;6.50;;;4.43;;
33844;SDS011;20145;43.118;25.694;2023-05-16T02:31:24;6.10;;;4.68;;
33844;SDS011;20145;43.118;25.694;2023-05-16T02:33:53;6.75;;;5.25;;
33844;SDS011;20145;43.118;25.694;2023-05-16T02:36:19;8.75;;;5.45;;
33844;SDS011;20145;43.118;25.694;2023-05-16T02:38:45;5.93;;;5.32;;
33844;SDS011;20145;43.118;25.694;2023-05-16T02:41:11;11.48;;;6.05;;
33844;SDS011;20145;43.118;25.694;2023-05-16T02:43:36;9.38;;;5.80;;
33844;SDS011;20145;43.118;25.694;2023-05-16T02:46:18;8.77;;;5.60;;
33844;SDS011;20145;43.118;25.694;2023-05-16T02:48:52;9.07;;;5.57;;
33844;SDS011;20145;43.118;25.694;2023-05-16T02:51:21;8.23;;;5.55;;
33844;SDS011;20145;43.118;25.694;2023-05-16T02:53:49;6.13;;;5.50;;
33844;SDS011;20145;43.118;25.694;2023-05-16T02:56:15;9.63;;;5.82;;
33844;SDS011;20145;43.118;25.694;2023-05-16T02:58:41;7.78;;;6.25;;
33844;SDS011;20145;43.118;25.694;2023-05-16T03:01:07;7.05;;;5.85;;
33844;SDS011;20145;43.118;25.694;2023-05-16T03:03:34;6.22;;;5.60;;
33844;SDS011;20145;43.118;25.694;2023-05-16T03:06:01;9.02;;;5.55;;
33844;SDS011;20145;43.118;25.694;2023-05-16T03:08:26;7.70;;;5.90;;
33844;SDS011;20145;43.118;25.694;2023-05-16T03:10:52;9.60;;;5.40;;
33844;SDS011;20145;43.118;25.694;2023-05-16T03:13:17;7.53;;;6.28;;
33844;SDS011;20145;43.118;25.694;2023-05-16T03:15:43;13.95;;;5.43;;
33844;SDS011;20145;43.118;25.694;2023-05-16T03:18:09;9.75;;;5.80;;
33844;SDS011;20145;43.118;25.694;2023-05-16T03:20:36;6.45;;;5.65;;
33844;SDS011;20145;43.118;25.694;2023-05-16T03:23:02;11.02;;;5.70;;
33844;SDS011;20145;43.118;25.694;2023-05-16T03:25:31;6.55;;;5.85;;
33844;SDS011;20145;43.118;25.694;2023-05-16T03:27:57;10.18;;;5.68;;
33844;SDS011;20145;43.118;25.694;2023-05-16T03:30:23;13.57;;;6.30;;
33844;SDS011;20145;43.118;25.694;2023-05-16T03:32:50;7.63;;;5.35;;
33844;SDS011;20145;43.118;25.694;2023-05-16T03:35:16;9.85;;;5.40;;
33844;SDS011;20145;43.118;25.694;2023-05-16T03:37:42;13.05;;;6.28;;
33844;SDS011;20145;43.118;25.694;2023-05-16T03:40:07;12.23;;;6.43;;
33844;SDS011;20145;43.118;25.694;2023-05-16T03:42:33;11.18;;;5.90;;
33844;SDS011;20145;43.118;25.694;2023-05-16T03:44:59;7.63;;;5.53;;
33844;SDS011;20145;43.118;25.694;2023-05-16T03:47:24;12.25;;;6.30;;
33844;SDS011;20145;43.118;25.694;2023-05-16T03:49:50;9.02;;;5.45;;
33844;SDS011;20145;43.118;25.694;2023-05-16T03:52:17;12.93;;;5.75;;
33844;SDS011;20145;43.118;25.694;2023-05-16T03:54:42;10.18;;;5.15;;
33844;SDS011;20145;43.118;25.694;2023-05-16T03:57:08;12.43;;;6.00;;
33844;SDS011;20145;43.118;25.694;2023-05-16T03:59:34;10.25;;;5.95;;
33844;SDS011;20145;43.118;25.694;2023-05-16T04:02:00;17.67;;;6.40;;
33844;SDS011;20145;43.118;25.694;2023-05-16T04:04:25;9.30;;;6.22;;
33844;SDS011;20145;43.118;25.694;2023-05-16T04:06:51;11.75;;;6.32;;
33844;SDS011;20145;43.118;25.694;2023-05-16T04:09:16;16.63;;;6.72;;
33844;SDS011;20145;43.118;25.694;2023-05-16T04:11:42;8.23;;;5.95;;
33844;SDS011;20145;43.118;25.694;2023-05-16T04:14:08;14.32;;;6.50;;
33844;SDS011;20145;43.118;25.694;2023-05-16T04:16:34;12.02;;;5.95;;
33844;SDS011;20145;43.118;25.694;2023-05-16T04:18:59;14.20;;;6.47;;
33844;SDS011;20145;43.118;25.694;2023-05-16T04:21:25;8.35;;;5.78;;
33844;SDS011;20145;43.118;25.694;2023-05-16T04:23:50;11.45;;;5.70;;
33844;SDS011;20145;43.118;25.694;2023-05-16T04:26:16;12.10;;;5.47;;
33844;SDS011;20145;43.118;25.694;2023-05-16T04:28:42;16.73;;;5.60;;
33844;SDS011;20145;43.118;25.694;2023-05-16T04:31:07;13.75;;;5.63;;
33844;SDS011;20145;43.118;25.694;2023-05-16T04:33:33;7.57;;;5.43;;
33844;SDS011;20145;43.118;25.694;2023-05-16T04:35:58;14.57;;;5.95;;
33844;SDS011;20145;43.118;25.694;2023-05-16T04:38:24;10.30;;;5.00;;
33844;SDS011;20145;43.118;25.694;2023-05-16T04:40:50;11.25;;;4.95;;
33844;SDS011;20145;43.118;25.694;2023-05-16T04:43:16;8.80;;;5.00;;
33844;SDS011;20145;43.118;25.694;2023-05-16T04:45:42;12.23;;;5.15;;
33844;SDS011;20145;43.118;25.694;2023-05-16T04:48:08;13.25;;;5.13;;
33844;SDS011;20145;43.118;25.694;2023-05-16T04:50:34;6.50;;;4.20;;
33844;SDS011;20145;43.118;25.694;2023-05-16T04:53:00;8.60;;;4.45;;
33844;SDS011;20145;43.118;25.694;2023-05-16T04:55:26;15.60;;;5.18;;
33844;SDS011;20145;43.118;25.694;2023-05-16T04:57:52;16.85;;;5.22;;
33844;SDS011;20145;43.118;25.694;2023-05-16T05:00:17;26.58;;;5.28;;
33844;SDS011;20145;43.118;25.694;2023-05-16T05:02:43;8.25;;;5.30;;
33844;SDS011;20145;43.118;25.694;2023-05-16T05:05:09;8.93;;;5.43;;
33844;SDS011;20145;43.118;25.694;2023-05-16T05:07:34;13.30;;;6.03;;
33844;SDS011;20145;43.118;25.694;2023-05-16T05:10:00;13.13;;;5.90;;
33844;SDS011;20145;43.118;25.694;2023-05-16T05:12:26;12.60;;;6.03;;
33844;SDS011;20145;43.118;25.694;2023-05-16T05:14:52;8.75;;;5.13;;
33844;SDS011;20145;43.118;25.694;2023-05-16T05:17:18;10.27;;;5.10;;
33844;SDS011;20145;43.118;25.694;2023-05-16T05:19:45;10.95;;;5.63;;
33844;SDS011;20145;43.118;25.694;2023-05-16T05:22:11;9.90;;;5.22;;
33844;SDS011;20145;43.118;25.694;2023-05-16T05:24:36;9.98;;;6.18;;
33844;SDS011;20145;43.118;25.694;2023-05-16T05:27:02;7.20;;;5.30;;
33844;SDS011;20145;43.118;25.694;2023-05-16T05:29:28;11.23;;;5.35;;
33844;SDS011;20145;43.118;25.694;2023-05-16T05:31:54;42.08;;;6.93;;
33844;SDS011;20145;43.118;25.694;2023-05-16T05:34:19;46.50;;;8.85;;
33844;SDS011;20145;43.118;25.694;2023-05-16T05:36:45;9.85;;;5.93;;
33844;SDS011;20145;43.118;25.694;2023-05-16T05:39:10;9.07;;;4.47;;
33844;SDS011;20145;43.118;25.694;2023-05-16T05:41:36;18.65;;;5.28;;
33844;SDS011;20145;43.118;25.694;2023-05-16T05:44:02;8.35;;;5.20;;
33844;SDS011;20145;43.118;25.694;2023-05-16T05:46:28;9.30;;;4.22;;
33844;SDS011;20145;43.118;25.694;2023-05-16T05:48:54;10.75;;;4.60;;
33844;SDS011;20145;43.118;25.694;2023-05-16T05:51:20;11.75;;;3.90;;
33844;SDS011;20145;43.118;25.694;2023-05-16T05:53:45;10.77;;;4.20;;
33844;SDS011;20145;43.118;25.694;2023-05-16T05:56:11;10.13;;;4.30;;
33844;SDS011;20145;43.118;25.694;2023-05-16T05:58:37;10.80;;;4.60;;
33844;SDS011;20145;43.118;25.694;2023-05-16T06:01:03;11.50;;;4.00;;
33844;SDS011;20145;43.118;25.694;2023-05-16T06:03:29;10.48;;;4.25;;
33844;SDS011;20145;43.118;25.694;2023-05-16T06:05:54;18.90;;;4.22;;
33844;SDS011;20145;43.118;25.694;2023-05-16T06:08:20;4.93;;;3.75;;
33844;SDS011;20145;43.118;25.694;2023-05-16T06:10:46;8.73;;;3.70;;
33844;SDS011;20145;43.118;25.694;2023-05-16T06:13:12;12.10;;;4.43;;
33844;SDS011;20145;43.118;25.694;2023-05-16T06:15:37;13.75;;;3.92;;
33844;SDS011;20145;43.118;25.694;2023-05-16T06:18:03;12.07;;;4.03;;
33844;SDS011;20145;43.118;25.694;2023-05-16T06:20:28;8.95;;;3.53;;
33844;SDS011;20145;43.118;25.694;2023-05-16T06:22:54;10.73;;;3.50;;
33844;SDS011;20145;43.118;25.694;2023-05-16T06:25:20;9.73;;;4.05;;
33844;SDS011;20145;43.118;25.694;2023-05-16T06:27:46;10.05;;;4.13;;
33844;SDS011;20145;43.118;25.694;2023-05-16T06:30:11;12.88;;;3.60;;
33844;SDS011;20145;43.118;25.694;2023-05-16T06:32:37;12.68;;;3.85;;
33844;SDS011;20145;43.118;25.694;2023-05-16T06:35:05;7.72;;;3.65;;
33844;SDS011;20145;43.118;25.694;2023-05-16T06:37:31;9.63;;;3.63;;
33844;SDS011;20145;43.118;25.694;2023-05-16T06:39:56;7.20;;;3.72;;
33844;SDS011;20145;43.118;25.694;2023-05-16T06:42:23;9.82;;;3.97;;
33844;SDS011;20145;43.118;25.694;2023-05-16T06:44:48;9.50;;;3.20;;
33844;SDS011;20145;43.118;25.694;2023-05-16T06:47:15;10.10;;;3.40;;
33844;SDS011;20145;43.118;25.694;2023-05-16T06:49:40;11.02;;;3.97;;
33844;SDS011;20145;43.118;25.694;2023-05-16T06:52:06;11.00;;;3.55;;
33844;SDS011;20145;43.118;25.694;2023-05-16T06:54:32;10.00;;;3.80;;
33844;SDS011;20145;43.118;25.694;2023-05-16T06:56:57;11.57;;;3.55;;
33844;SDS011;20145;43.118;25.694;2023-05-16T06:59:23;12.88;;;3.63;;
33844;SDS011;20145;43.118;25.694;2023-05-16T07:01:48;15.05;;;3.75;;
33844;SDS011;20145;43.118;25.694;2023-05-16T07:04:14;13.15;;;3.80;;
33844;SDS011;20145;43.118;25.694;2023-05-16T07:06:40;7.28;;;3.40;;
33844;SDS011;20145;43.118;25.694;2023-05-16T07:09:05;11.40;;;3.90;;
33844;SDS011;20145;43.118;25.694;2023-05-16T07:11:31;19.00;;;4.85;;
33844;SDS011;20145;43.118;25.694;2023-05-16T07:13:56;18.27;;;3.78;;
33844;SDS011;20145;43.118;25.694;2023-05-16T07:16:22;14.18;;;4.20;;
33844;SDS011;20145;43.118;25.694;2023-05-16T07:18:48;7.00;;;3.80;;
33844;SDS011;20145;43.118;25.694;2023-05-16T07:21:13;14.30;;;4.05;;
33844;SDS011;20145;43.118;25.694;2023-05-16T07:23:39;16.25;;;5.60;;
33844;SDS011;20145;43.118;25.694;2023-05-16T07:26:05;10.50;;;3.90;;
33844;SDS011;20145;43.118;25.694;2023-05-16T07:28:31;11.15;;;3.75;;
33844;SDS011;20145;43.118;25.694;2023-05-16T07:30:56;9.95;;;3.40;;
33844;SDS011;20145;43.118;25.694;2023-05-16T07:33:23;11.93;;;3.30;;
33844;SDS011;20145;43.118;25.694;2023-05-16T07:35:49;11.80;;;4.35;;
33844;SDS011;20145;43.118;25.694;2023-05-16T07:38:15;9.25;;;3.60;;
33844;SDS011;20145;43.118;25.694;2023-05-16T07:40:40;9.52;;;3.40;;
33844;SDS011;20145;43.118;25.694;2023-05-16T07:43:06;10.70;;;3.35;;
33844;SDS011;20145;43.118;25.694;2023-05-16T07:45:32;11.23;;;3.20;;
33844;SDS011;20145;43.118;25.694;2023-05-16T07:47:57;10.50;;;3.20;;
33844;SDS011;20145;43.118;25.694;2023-05-16T07:50:24;9.90;;;3.20;;
33844;SDS011;20145;43.118;25.694;2023-05-16T07:52:51;7.45;;;3.22;;
33844;SDS011;20145;43.118;25.694;2023-05-16T07:55:17;7.07;;;3.10;;
33844;SDS011;20145;43.118;25.694;2023-05-16T07:57:42;7.38;;;3.30;;
33844;SDS011;20145;43.118;25.694;2023-05-16T08:00:08;8.65;;;3.45;;
33844;SDS011;20145;43.118;25.694;2023-05-16T08:02:34;10.45;;;3.65;;
33844;SDS011;20145;43.118;25.694;2023-05-16T08:05:00;12.32;;;3.47;;
33844;SDS011;20145;43.118;25.694;2023-05-16T08:07:26;10.95;;;3.95;;
33844;SDS011;20145;43.118;25.694;2023-05-16T08:09:51;11.05;;;3.88;;
33844;SDS011;20145;43.118;25.694;2023-05-16T08:12:17;12.38;;;4.07;;
33844;SDS011;20145;43.118;25.694;2023-05-16T08:14:43;11.15;;;4.65;;
33844;SDS011;20145;43.118;25.694;2023-05-16T08:17:08;7.30;;;3.55;;
33844;SDS011;20145;43.118;25.694;2023-05-16T08:19:34;6.43;;;3.45;;
33844;SDS011;20145;43.118;25.694;2023-05-16T08:22:00;7.32;;;3.65;;
33844;SDS011;20145;43.118;25.694;2023-05-16T08:24:26;12.98;;;4.18;;
33844;SDS011;20145;43.118;25.694;2023-05-16T08:26:51;11.57;;;4.18;;
33844;SDS011;20145;43.118;25.694;2023-05-16T08:29:17;13.15;;;4.57;;
33844;SDS011;20145;43.118;25.694;2023-05-16T08:31:42;8.43;;;3.67;;
33844;SDS011;20145;43.118;25.694;2023-05-16T08:34:08;15.02;;;4.60;;
33844;SDS011;20145;43.118;25.694;2023-05-16T08:36:35;14.43;;;4.90;;
33844;SDS011;20145;43.118;25.694;2023-05-16T08:39:02;12.85;;;5.15;;
33844;SDS011;20145;43.118;25.694;2023-05-16T08:41:28;11.23;;;5.50;;
33844;SDS011;20145;43.118;25.694;2023-05-16T08:43:54;10.13;;;4.85;;
33844;SDS011;20145;43.118;25.694;2023-05-16T08:46:20;13.45;;;4.63;;
33844;SDS011;20145;43.118;25.694;2023-05-16T08:48:49;10.55;;;4.25;;
33844;SDS011;20145;43.118;25.694;2023-05-16T08:51:17;12.73;;;4.28;;
33844;SDS011;20145;43.118;25.694;2023-05-16T08:53:44;7.57;;;3.90;;
33844;SDS011;20145;43.118;25.694;2023-05-16T08:56:34;10.23;;;3.88;;
33844;SDS011;20145;43.118;25.694;2023-05-16T08:59:01;15.75;;;4.70;;
33844;SDS011;20145;43.118;25.694;2023-05-16T09:01:27;15.35;;;4.97;;
33844;SDS011;20145;43.118;25.694;2023-05-16T09:03:52;14.07;;;5.38;;
33844;SDS011;20145;43.118;25.694;2023-05-16T09:06:19;15.10;;;5.28;;
33844;SDS011;20145;43.118;25.694;2023-05-16T09:08:45;9.35;;;3.58;;
33844;SDS011;20145;43.118;25.694;2023-05-16T09:11:12;6.30;;;3.58;;
33844;SDS011;20145;43.118;25.694;2023-05-16T09:13:37;10.18;;;4.43;;
33844;SDS011;20145;43.118;25.694;2023-05-16T09:16:07;13.07;;;4.60;;
33844;SDS011;20145;43.118;25.694;2023-05-16T09:18:39;15.80;;;5.03;;
33844;SDS011;20145;43.118;25.694;2023-05-16T09:21:08;11.23;;;5.00;;
33844;SDS011;20145;43.118;25.694;2023-05-16T09:23:34;10.52;;;4.47;;
33844;SDS011;20145;43.118;25.694;2023-05-16T09:26:00;12.65;;;4.63;;
33844;SDS011;20145;43.118;25.694;2023-05-16T09:28:27;9.45;;;3.90;;
33844;SDS011;20145;43.118;25.694;2023-05-16T09:30:52;9.82;;;4.40;;
33844;SDS011;20145;43.118;25.694;2023-05-16T09:33:23;10.23;;;5.80;;
33844;SDS011;20145;43.118;25.694;2023-05-16T09:35:57;9.77;;;4.85;;
33844;SDS011;20145;43.118;25.694;2023-05-16T09:38:24;11.88;;;4.50;;
33844;SDS011;20145;43.118;25.694;2023-05-16T09:40:51;9.70;;;4.38;;
33844;SDS011;20145;43.118;25.694;2023-05-16T09:43:19;9.30;;;4.13;;
33844;SDS011;20145;43.118;25.694;2023-05-16T09:45:47;17.80;;;4.88;;
33844;SDS011;20145;43.118;25.694;2023-05-16T09:48:13;13.65;;;4.78;;
33844;SDS011;20145;43.118;25.694;2023-05-16T09:50:45;12.25;;;4.38;;
33844;SDS011;20145;43.118;25.694;2023-05-16T09:53:27;17.40;;;5.40;;
33844;SDS011;20145;43.118;25.694;2023-05-16T09:56:04;14.57;;;5.72;;
33844;SDS011;20145;43.118;25.694;2023-05-16T09:58:40;20.90;;;5.32;;
33844;SDS011;20145;43.118;25.694;2023-05-16T10:01:07;20.33;;;6.70;;
33844;SDS011;20145;43.118;25.694;2023-05-16T10:03:35;13.95;;;5.72;;
33844;SDS011;20145;43.118;25.694;2023-05-16T10:06:02;14.40;;;5.30;;
33844;SDS011;20145;43.118;25.694;2023-05-16T10:08:29;14.32;;;4.50;;
33844;SDS011;20145;43.118;25.694;2023-05-16T10:10:56;21.67;;;4.90;;
33844;SDS011;20145;43.118;25.694;2023-05-16T10:13:22;14.02;;;4.65;;
33844;SDS011;20145;43.118;25.694;2023-05-16T10:15:53;17.40;;;5.00;;
33844;SDS011;20145;43.118;25.694;2023-05-16T10:18:21;12.52;;;4.25;;
33844;SDS011;20145;43.118;25.694;2023-05-16T10:20:50;10.48;;;4.50;;
33844;SDS011;20145;43.118;25.694;2023-05-16T10:23:19;10.73;;;4.28;;
33844;SDS011;20145;43.118;25.694;2023-05-16T10:25:47;12.82;;;4.72;;
33844;SDS011;20145;43.118;25.694;2023-05-16T10:28:14;9.40;;;4.25;;
33844;SDS011;20145;43.118;25.694;2023-05-16T10:30:42;13.10;;;4.15;;
33844;SDS011;20145;43.118;25.694;2023-05-16T10:33:10;11.57;;;4.78;;
33844;SDS011;20145;43.118;25.694;2023-05-16T10:35:37;14.70;;;4.30;;
33844;SDS011;20145;43.118;25.694;2023-05-16T10:38:03;9.27;;;4.22;;
33844;SDS011;20145;43.118;25.694;2023-05-16T10:40:30;13.35;;;4.93;;
33844;SDS011;20145;43.118;25.694;2023-05-16T10:42:58;13.27;;;4.57;;
33844;SDS011;20145;43.118;25.694;2023-05-16T10:45:25;15.25;;;4.85;;
33844;SDS011;20145;43.118;25.694;2023-05-16T10:47:54;12.23;;;4.38;;
33844;SDS011;20145;43.118;25.694;2023-05-16T11:06:42;10.70;;;4.40;;
33844;SDS011;20145;43.118;25.694;2023-05-16T11:14:34;12.35;;;4.25;;
33844;SDS011;20145;43.118;25.694;2023-05-16T11:17:07;12.50;;;3.90;;
33844;SDS011;20145;43.118;25.694;2023-05-16T11:24:35;10.02;;;4.53;;
33844;SDS011;20145;43.118;25.694;2023-05-16T11:27:02;17.83;;;4.82;;
33844;SDS011;20145;43.118;25.694;2023-05-16T11:29:32;12.50;;;3.60;;
33844;SDS011;20145;43.118;25.694;2023-05-16T11:32:00;9.35;;;3.75;;
33844;SDS011;20145;43.118;25.694;2023-05-16T11:34:27;18.33;;;3.88;;
33844;SDS011;20145;43.118;25.694;2023-05-16T11:36:54;10.30;;;3.53;;
33844;SDS011;20145;43.118;25.694;2023-05-16T11:39:20;15.68;;;3.90;;
33844;SDS011;20145;43.118;25.694;2023-05-16T11:41:49;16.90;;;3.78;;
33844;SDS011;20145;43.118;25.694;2023-05-16T11:44:15;10.15;;;3.28;;
33844;SDS011;20145;43.118;25.694;2023-05-16T11:46:41;11.88;;;3.25;;
33844;SDS011;20145;43.118;25.694;2023-05-16T11:49:09;12.50;;;3.45;;
33844;SDS011;20145;43.118;25.694;2023-05-16T11:51:38;16.27;;;4.13;;
33844;SDS011;20145;43.118;25.694;2023-05-16T11:54:05;12.40;;;4.00;;
33844;SDS011;20145;43.118;25.694;2023-05-16T11:56:34;9.98;;;3.47;;
33844;SDS011;20145;43.118;25.694;2023-05-16T11:59:00;10.02;;;3.38;;
33844;SDS011;20145;43.118;25.694;2023-05-16T12:01:33;10.52;;;3.15;;
33844;SDS011;20145;43.118;25.694;2023-05-16T12:03:59;10.85;;;4.22;;
33844;SDS011;20145;43.118;25.694;2023-05-16T12:06:25;12.90;;;3.05;;
33844;SDS011;20145;43.118;25.694;2023-05-16T12:08:51;10.90;;;3.45;;
33844;SDS011;20145;43.118;25.694;2023-05-16T12:11:18;9.00;;;3.47;;
33844;SDS011;20145;43.118;25.694;2023-05-16T12:13:45;10.48;;;3.28;;
33844;SDS011;20145;43.118;25.694;2023-05-16T12:16:11;12.02;;;3.35;;
33844;SDS011;20145;43.118;25.694;2023-05-16T12:18:37;19.73;;;4.82;;
33844;SDS011;20145;43.118;25.694;2023-05-16T12:21:04;13.10;;;3.30;;
33844;SDS011;20145;43.118;25.694;2023-05-16T12:23:31;16.85;;;3.33;;
33844;SDS011;20145;43.118;25.694;2023-05-16T12:25:58;10.93;;;3.15;;
33844;SDS011;20145;43.118;25.694;2023-05-16T12:28:29;9.82;;;3.60;;
33844;SDS011;20145;43.118;25.694;2023-05-16T12:30:58;15.82;;;3.40;;
33844;SDS011;20145;43.118;25.694;2023-05-16T12:33:24;11.18;;;3.70;;
33844;SDS011;20145;43.118;25.694;2023-05-16T12:35:50;12.90;;;3.90;;
33844;SDS011;20145;43.118;25.694;2023-05-16T12:38:17;14.68;;;5.07;;
33844;SDS011;20145;43.118;25.694;2023-05-16T12:40:44;28.08;;;18.35;;
33844;SDS011;20145;43.118;25.694;2023-05-16T12:43:14;32.00;;;17.83;;
33844;SDS011;20145;43.118;25.694;2023-05-16T12:45:40;22.58;;;9.95;;
33844;SDS011;20145;43.118;25.694;2023-05-16T12:48:10;15.07;;;6.97;;
33844;SDS011;20145;43.118;25.694;2023-05-16T12:53:36;13.75;;;3.50;;
33844;SDS011;20145;43.118;25.694;2023-05-16T12:56:09;15.82;;;4.43;;
33844;SDS011;20145;43.118;25.694;2023-05-16T12:58:36;9.52;;;3.63;;
33844;SDS011;20145;43.118;25.694;2023-05-16T13:01:02;23.42;;;4.43;;
33844;SDS011;20145;43.118;25.694;2023-05-16T13:03:28;18.60;;;5.70;;
33844;SDS011;20145;43.118;25.694;2023-05-16T13:05:54;15.60;;;4.00;;
33844;SDS011;20145;43.118;25.694;2023-05-16T13:08:20;14.02;;;4.07;;
33844;SDS011;20145;43.118;25.694;2023-05-16T13:10:46;26.23;;;4.70;;
33844;SDS011;20145;43.118;25.694;2023-05-16T13:13:11;20.25;;;4.90;;
33844;SDS011;20145;43.118;25.694;2023-05-16T13:15:38;11.50;;;3.83;;
33844;SDS011;20145;43.118;25.694;2023-05-16T13:18:04;15.30;;;6.00;;
33844;SDS011;20145;43.118;25.694;2023-05-16T13:20:30;16.85;;;4.10;;
33844;SDS011;20145;43.118;25.694;2023-05-16T13:22:55;21.25;;;3.90;;
33844;SDS011;20145;43.118;25.694;2023-05-16T13:25:21;16.88;;;4.47;;
33844;SDS011;20145;43.118;25.694;2023-05-16T13:27:46;23.15;;;4.40;;
33844;SDS011;20145;43.118;25.694;2023-05-16T13:30:13;13.27;;;3.53;;
33844;SDS011;20145;43.118;25.694;2023-05-16T13:32:39;15.68;;;4.68;;
33844;SDS011;20145;43.118;25.694;2023-05-16T13:35:05;12.57;;;3.85;;
33844;SDS011;20145;43.118;25.694;2023-05-16T13:37:31;14.00;;;4.75;;
33844;SDS011;20145;43.118;25.694;2023-05-16T13:39:57;20.95;;;6.07;;
33844;SDS011;20145;43.118;25.694;2023-05-16T13:42:23;10.88;;;4.13;;
33844;SDS011;20145;43.118;25.694;2023-05-16T13:44:48;14.68;;;4.90;;
33844;SDS011;20145;43.118;25.694;2023-05-16T13:47:15;22.13;;;5.43;;
33844;SDS011;20145;43.118;25.694;2023-05-16T13:49:41;13.50;;;3.88;;
33844;SDS011;20145;43.118;25.694;2023-05-16T13:52:06;13.77;;;4.43;;
33844;SDS011;20145;43.118;25.694;2023-05-16T13:54:32;9.07;;;3.72;;
33844;SDS011;20145;43.118;25.694;2023-05-16T13:56:58;21.38;;;4.80;;
33844;SDS011;20145;43.118;25.694;2023-05-16T13:59:24;14.93;;;3.88;;
33844;SDS011;20145;43.118;25.694;2023-05-16T14:01:49;15.82;;;4.40;;
33844;SDS011;20145;43.118;25.694;2023-05-16T14:04:15;20.40;;;4.28;;
33844;SDS011;20145;43.118;25.694;2023-05-16T14:06:41;12.43;;;3.60;;
33844;SDS011;20145;43.118;25.694;2023-05-16T14:09:07;18.13;;;3.88;;
33844;SDS011;20145;43.118;25.694;2023-05-16T14:11:32;15.50;;;4.03;;
33844;SDS011;20145;43.118;25.694;2023-05-16T14:13:58;17.38;;;5.13;;
33844;SDS011;20145;43.118;25.694;2023-05-16T14:16:24;11.43;;;3.72;;
33844;SDS011;20145;43.118;25.694;2023-05-16T14:18:50;20.05;;;5.28;;
33844;SDS011;20145;43.118;25.694;2023-05-16T14:21:16;20.60;;;5.35;;
33844;SDS011;20145;43.118;25.694;2023-05-16T14:23:41;23.92;;;4.90;;
33844;SDS011;20145;43.118;25.694;2023-05-16T14:26:07;18.40;;;4.00;;
33844;SDS011;20145;43.118;25.694;2023-05-16T14:28:33;16.45;;;4.57;;
33844;SDS011;20145;43.118;25.694;2023-05-16T14:30:59;16.83;;;3.85;;
33844;SDS011;20145;43.118;25.694;2023-05-16T14:33:25;19.48;;;4.53;;
33844;SDS011;20145;43.118;25.694;2023-05-16T14:35:51;22.77;;;5.93;;
33844;SDS011;20145;43.118;25.694;2023-05-16T14:38:17;22.23;;;6.60;;
33844;SDS011;20145;43.118;25.694;2023-05-16T14:40:43;22.30;;;7.30;;
33844;SDS011;20145;43.118;25.694;2023-05-16T14:43:09;19.13;;;4.85;;
33844;SDS011;20145;43.118;25.694;2023-05-16T14:45:36;14.70;;;5.20;;
33844;SDS011;20145;43.118;25.694;2023-05-16T14:48:02;16.65;;;5.05;;
33844;SDS011;20145;43.118;25.694;2023-05-16T14:50:28;14.90;;;4.13;;
33844;SDS011;20145;43.118;25.694;2023-05-16T14:52:53;15.60;;;4.68;;
33844;SDS011;20145;43.118;25.694;2023-05-16T14:55:19;16.00;;;5.22;;
33844;SDS011;20145;43.118;25.694;2023-05-16T14:57:45;15.68;;;4.53;;
33844;SDS011;20145;43.118;25.694;2023-05-16T15:00:13;21.67;;;4.82;;
33844;SDS011;20145;43.118;25.694;2023-05-16T15:02:41;13.57;;;4.68;;
33844;SDS011;20145;43.118;25.694;2023-05-16T15:05:06;20.73;;;5.45;;